Time;durP1;ratioP1;P1;durP2;ratioP2;P2;SDS_P1;SDS_P2;PMS_P1;PMS_P2;Temp;Humidity;BMP_temperature;BMP_pressure;BME280_temperature;BME280_humidity;BME280_pressure;Samples;Min_cycle;Max_cycle;Signal;HPM_P1;HPM_P2
2022/08/29 00:01:07;;;;;;;6.47;3.35;;;;;;;18.60;55.24;102093.13;6305112;22;20432;-57
2022/08/29 00:03:33;;;;;;;7.45;3.88;;;;;;;18.57;55.20;102090.88;6305301;22;20007;-57
2022/08/29 00:05:59;;;;;;;8.20;3.80;;;;;;;18.46;55.65;102094.75;6306022;22;20009;-57
2022/08/29 00:08:24;;;;;;;7.47;3.72;;;;;;;18.50;55.45;102096.75;6304328;22;20050;-57
2022/08/29 00:10:50;;;;;;;8.75;4.38;;;;;;;18.54;55.56;102094.22;6305497;22;20017;-57
2022/08/29 00:13:15;;;;;;;6.80;3.83;;;;;;;18.41;55.91;102095.59;6305706;22;20086;-57
2022/08/29 00:15:41;;;;;;;9.68;4.22;;;;;;;18.33;55.94;102093.31;6305555;22;20004;-58
2022/08/29 00:18:07;;;;;;;9.32;5.13;;;;;;;18.31;56.11;102090.78;6304152;22;19999;-58
2022/08/29 00:20:34;;;;;;;7.78;4.45;;;;;;;18.27;56.17;102091.59;6305835;22;20014;-58
2022/08/29 00:23:00;;;;;;;10.02;4.20;;;;;;;18.22;56.20;102089.63;6305406;22;20004;-58
2022/08/29 00:25:26;;;;;;;8.35;4.50;;;;;;;18.14;56.36;102081.72;6305687;22;20014;-58
2022/08/29 00:27:51;;;;;;;6.68;4.32;;;;;;;18.09;56.48;102085.34;6304208;22;20007;-58
2022/08/29 00:30:19;;;;;;;8.88;4.55;;;;;;;18.01;56.60;102082.22;6304094;22;20018;-58
2022/08/29 00:32:44;;;;;;;9.15;4.60;;;;;;;17.99;56.61;102085.28;6306420;22;20007;-58
2022/08/29 00:35:14;;;;;;;7.82;4.60;;;;;;;17.95;56.60;102080.50;6306286;22;20058;-58
2022/08/29 00:37:41;;;;;;;11.23;4.78;;;;;;;17.86;57.04;102086.63;6305478;22;20010;-57
2022/08/29 00:40:09;;;;;;;8.43;4.60;;;;;;;17.80;56.97;102098.97;6303389;22;20007;-58
2022/08/29 00:42:34;;;;;;;9.63;4.60;;;;;;;17.83;56.80;102092.78;6303214;22;20378;-57
2022/08/29 00:45:01;;;;;;;9.48;5.63;;;;;;;17.78;56.97;102098.38;6304375;22;20086;-57
2022/08/29 00:47:32;;;;;;;10.80;5.10;;;;;;;17.73;57.44;102091.88;6305130;22;20078;-57
2022/08/29 00:49:58;;;;;;;9.07;5.30;;;;;;;17.72;57.41;102090.16;6303222;22;20007;-58
2022/08/29 00:52:31;;;;;;;10.60;5.65;;;;;;;17.67;57.55;102097.44;6304493;22;20007;-58
2022/08/29 00:54:58;;;;;;;11.90;5.63;;;;;;;17.65;57.47;102090.41;6305397;22;20427;-57
2022/08/29 00:57:27;;;;;;;9.23;5.43;;;;;;;17.59;57.73;102088.66;6303317;22;20007;-57
2022/08/29 00:59:53;;;;;;;10.68;6.28;;;;;;;17.56;57.57;102090.03;6305236;22;20363;-57
2022/08/29 01:02:19;;;;;;;8.60;5.30;;;;;;;17.57;57.61;102099.34;6304688;22;20035;-57
2022/08/29 01:04:45;;;;;;;8.40;6.03;;;;;;;17.57;57.74;102093.72;6302636;22;19999;-58
2022/08/29 01:07:11;;;;;;;8.15;5.70;;;;;;;17.49;57.88;102089.47;6305309;22;20141;-58
2022/08/29 01:09:38;;;;;;;8.43;5.45;;;;;;;17.49;57.96;102099.81;6304250;22;20106;-58
2022/08/29 01:12:16;;;;;;;15.13;6.28;;;;;;;17.40;57.88;102094.69;6303863;22;20327;-58
2022/08/29 01:14:55;;;;;;;10.57;5.70;;;;;;;17.42;57.53;102106.53;6304701;22;20031;-58
2022/08/29 01:17:36;;;;;;;8.73;6.07;;;;;;;17.44;57.41;102100.63;6304533;22;19999;-58
2022/08/29 01:20:33;;;;;;;11.75;6.45;;;;;;;17.43;57.47;102098.94;6303785;22;20007;-58
2022/08/29 01:23:22;;;;;;;13.77;6.85;;;;;;;17.40;57.46;102108.75;6305545;22;20025;-58
2022/08/29 01:25:49;;;;;;;14.70;6.40;;;;;;;17.29;57.92;102108.91;6304551;22;20007;-58
2022/08/29 01:28:24;;;;;;;9.77;6.05;;;;;;;17.26;58.11;102101.91;6304652;22;20004;-58
2022/08/29 01:31:10;;;;;;;9.93;6.05;;;;;;;17.34;57.44;102112.63;6305234;22;20047;-58
2022/08/29 01:33:48;;;;;;;14.50;6.78;;;;;;;17.25;57.81;102100.22;6303203;22;20013;-58
2022/08/29 01:36:18;;;;;;;11.77;6.60;;;;;;;17.21;58.31;102104.66;6305228;22;20007;-58
2022/08/29 01:38:43;;;;;;;9.00;6.57;;;;;;;17.18;58.41;102099.59;6303878;22;20061;-58
2022/08/29 01:41:11;;;;;;;10.93;7.32;;;;;;;17.20;58.54;102090.91;6304516;22;20019;-58
2022/08/29 01:43:46;;;;;;;13.07;7.70;;;;;;;17.12;58.71;102081.00;6305487;22;20011;-58
2022/08/29 01:46:14;;;;;;;13.73;7.80;;;;;;;17.11;58.72;102084.94;6304728;22;20431;-58
2022/08/29 01:48:43;;;;;;;15.90;8.13;;;;;;;17.04;58.79;102089.91;6306058;22;20380;-58
2022/08/29 01:51:08;;;;;;;13.02;8.52;;;;;;;17.03;58.73;102093.84;6304690;22;20019;-57
2022/08/29 01:53:34;;;;;;;13.93;8.77;;;;;;;17.07;58.66;102089.38;6304290;22;20007;-57
2022/08/29 01:56:08;;;;;;;12.50;9.20;;;;;;;17.04;58.87;102087.97;6305757;22;20053;-57
2022/08/29 01:58:33;;;;;;;17.17;9.75;;;;;;;17.01;59.08;102093.25;6305535;22;20014;-57
2022/08/29 02:00:58;;;;;;;18.38;9.65;;;;;;;17.00;58.83;102091.56;6304997;22;20372;-57
2022/08/29 02:03:24;;;;;;;18.33;9.10;;;;;;;16.98;58.77;102099.38;6304349;22;20010;-57
2022/08/29 02:05:49;;;;;;;17.80;10.32;;;;;;;16.95;59.02;102095.16;6305629;22;20031;-57
2022/08/29 02:08:15;;;;;;;14.98;9.48;;;;;;;16.92;58.77;102099.34;6304882;22;20004;-57
2022/08/29 02:10:40;;;;;;;16.08;9.30;;;;;;;16.89;58.78;102094.25;6305223;22;20407;-57
2022/08/29 02:13:05;;;;;;;19.45;10.02;;;;;;;16.85;59.01;102095.06;6303290;22;20056;-57
2022/08/29 02:15:31;;;;;;;14.88;9.38;;;;;;;16.84;59.30;102091.41;6304506;22;20015;-57
2022/08/29 02:17:56;;;;;;;17.30;9.30;;;;;;;16.79;59.62;102091.38;6304502;22;20328;-58
2022/08/29 02:20:21;;;;;;;16.50;9.48;;;;;;;16.81;59.17;102091.94;6305452;22;20013;-57
2022/08/29 02:22:47;;;;;;;19.77;9.38;;;;;;;16.78;59.38;102094.41;6303578;22;20030;-57
2022/08/29 02:27:57;;;;;;;15.63;9.13;;;;;;;16.73;59.28;102103.63;6304335;22;20014;-58
2022/08/29 02:30:24;;;;;;;19.08;8.93;;;;;;;16.70;59.54;102109.72;6303288;22;20296;-57
2022/08/29 02:32:49;;;;;;;13.82;8.68;;;;;;;16.66;59.62;102114.16;6305083;22;20061;-57
2022/08/29 02:35:15;;;;;;;14.77;8.50;;;;;;;16.67;59.36;102107.47;6304383;22;19999;-57
2022/08/29 02:37:40;;;;;;;14.35;8.43;;;;;;;16.66;59.47;102105.75;6303173;22;20423;-57
2022/08/29 02:40:06;;;;;;;13.05;8.98;;;;;;;16.63;59.75;102109.13;6304932;22;20000;-57
2022/08/29 02:42:32;;;;;;;13.05;8.27;;;;;;;16.60;59.99;102115.25;6303387;22;20012;-57
2022/08/29 02:44:57;;;;;;;17.15;9.25;;;;;;;16.62;59.83;102108.28;6306856;22;20005;-57
2022/08/29 02:47:22;;;;;;;13.23;8.00;;;;;;;16.59;59.77;102110.75;6306884;22;20425;-58
2022/08/29 02:49:47;;;;;;;14.40;8.32;;;;;;;16.56;60.05;102116.88;6305790;22;20038;-62
2022/08/29 02:52:13;;;;;;;14.18;8.45;;;;;;;16.57;59.84;102110.16;6305472;22;20019;-57
2022/08/29 02:54:39;;;;;;;13.38;8.10;;;;;;;16.52;59.98;102112.91;6306511;22;20669;-58
2022/08/29 02:57:04;;;;;;;16.90;7.97;;;;;;;16.54;59.74;102114.31;6305030;22;20025;-58
2022/08/29 02:59:30;;;;;;;11.13;8.00;;;;;;;16.55;59.65;102118.84;6304735;22;20434;-58
2022/08/29 03:01:55;;;;;;;12.93;8.20;;;;;;;16.51;59.80;102120.47;6306923;22;20035;-58
2022/08/29 03:04:20;;;;;;;13.18;8.23;;;;;;;16.48;59.82;102114.53;6305595;22;20003;-58
2022/08/29 03:06:46;;;;;;;13.50;7.82;;;;;;;16.45;59.44;102119.53;6305601;22;20467;-58
2022/08/29 03:09:11;;;;;;;12.82;8.05;;;;;;;16.42;59.82;102110.81;6306180;22;20003;-58
2022/08/29 03:11:36;;;;;;;12.07;7.53;;;;;;;16.45;59.71;102122.34;6305526;22;20068;-58
2022/08/29 03:14:01;;;;;;;12.13;7.25;;;;;;;16.45;59.58;102110.28;6305824;22;20007;-58
2022/08/29 03:16:27;;;;;;;13.18;7.70;;;;;;;16.45;59.70;102104.69;6304627;22;20003;-59
2022/08/29 03:18:55;;;;;;;10.90;7.60;;;;;;;16.37;60.00;102116.38;6304727;22;20015;-59
2022/08/29 03:21:23;;;;;;;15.52;8.65;;;;;;;16.34;60.10;102114.91;6306129;22;20034;-58
2022/08/29 03:23:54;;;;;;;16.90;8.30;;;;;;;16.37;60.13;102111.59;6306010;22;20400;-59
2022/08/29 03:26:20;;;;;;;14.57;8.15;;;;;;;16.37;60.35;102099.56;6304823;22;19995;-58
2022/08/29 03:28:46;;;;;;;15.90;8.45;;;;;;;16.35;60.23;102113.84;6305695;22;20086;-59
2022/08/29 03:31:11;;;;;;;16.83;8.23;;;;;;;16.29;60.53;102100.00;6305399;22;20446;-59
2022/08/29 03:33:37;;;;;;;16.67;8.57;;;;;;;16.29;60.54;102102.81;6305442;22;20007;-59
2022/08/29 03:36:04;;;;;;;13.52;8.48;;;;;;;16.21;60.81;102101.31;6305356;22;20064;-58
2022/08/29 03:38:29;;;;;;;12.43;7.82;;;;;;;16.27;60.34;102100.28;6305443;22;20017;-59
2022/08/29 03:40:54;;;;;;;18.05;8.88;;;;;;;16.23;60.48;102098.25;6304535;22;20007;-58
2022/08/29 03:43:20;;;;;;;16.35;8.30;;;;;;;16.25;60.49;102088.47;6306473;22;20487;-59
2022/08/29 03:45:48;;;;;;;15.15;7.85;;;;;;;16.18;60.85;102087.81;6305415;22;20026;-59
2022/08/29 03:48:13;;;;;;;14.88;8.52;;;;;;;16.19;60.85;102075.50;6306221;22;20014;-59
2022/08/29 03:50:39;;;;;;;15.65;7.97;;;;;;;16.25;60.70;102066.06;6303621;22;19999;-59
2022/08/29 03:53:05;;;;;;;14.60;8.10;;;;;;;16.19;60.78;102081.09;6303553;22;20007;-59
2022/08/29 03:55:30;;;;;;;12.32;8.55;;;;;;;16.14;60.66;102072.66;6304791;22;20331;-59
2022/08/29 03:57:55;;;;;;;17.60;8.00;;;;;;;16.14;60.72;102065.09;6305423;22;20042;-59
2022/08/29 04:00:21;;;;;;;10.95;7.65;;;;;;;16.12;61.00;102066.47;6304397;22;20015;-58
2022/08/29 04:02:47;;;;;;;12.85;7.60;;;;;;;16.10;60.63;102071.47;6304808;22;20328;-59
2022/08/29 04:05:14;;;;;;;11.88;6.88;;;;;;;16.10;60.51;102068.69;6304235;22;20003;-59
2022/08/29 04:07:52;;;;;;;10.43;7.15;;;;;;;16.09;60.24;102067.84;6305425;22;20007;-58
2022/08/29 04:10:22;;;;;;;15.07;7.18;;;;;;;16.06;60.68;102068.34;6305152;22;20031;-58
2022/08/29 04:12:48;;;;;;;12.02;7.22;;;;;;;16.08;60.58;102068.09;6304824;22;20030;-58
2022/08/29 04:15:13;;;;;;;10.75;6.65;;;;;;;16.02;60.75;102075.56;6303650;22;20411;-58
2022/08/29 04:17:39;;;;;;;12.50;6.95;;;;;;;16.02;60.77;102077.53;6306687;22;20070;-59
2022/08/29 04:20:06;;;;;;;10.80;5.90;;;;;;;16.00;60.91;102080.59;6306035;22;20022;-59
2022/08/29 04:22:35;;;;;;;9.20;6.75;;;;;;;15.94;61.21;102087.22;6305751;22;20052;-59
2022/08/29 04:25:00;;;;;;;10.93;6.22;;;;;;;15.95;61.16;102089.78;6305861;22;19999;-59
2022/08/29 04:27:28;;;;;;;16.27;6.68;;;;;;;15.95;61.26;102089.78;6304979;22;20018;-58
2022/08/29 04:29:53;;;;;;;12.50;7.00;;;;;;;15.89;61.32;102079.63;6304780;22;20003;-60
2022/08/29 04:32:19;;;;;;;13.75;7.20;;;;;;;15.94;61.03;102078.84;6305689;22;20030;-59
2022/08/29 04:34:47;;;;;;;15.27;7.40;;;;;;;15.93;61.01;102089.19;6306021;22;20011;-59
2022/08/29 04:37:12;;;;;;;11.60;7.38;;;;;;;15.95;60.98;102095.41;6304161;22;20007;-59
2022/08/29 04:39:40;;;;;;;11.88;7.18;;;;;;;15.90;60.89;102095.31;6304387;22;20021;-58
2022/08/29 04:42:09;;;;;;;13.40;7.70;;;;;;;15.87;61.29;102093.00;6304357;22;20483;-59
2022/08/29 04:44:34;;;;;;;13.25;8.02;;;;;;;15.87;61.21;102093.00;6305720;22;20070;-58
2022/08/29 04:46:59;;;;;;;15.55;7.68;;;;;;;15.91;61.34;102094.19;6306261;22;20347;-58
2022/08/29 04:49:24;;;;;;;13.32;7.68;;;;;;;15.92;61.38;102095.06;6304258;22;20458;-58
2022/08/29 04:51:52;;;;;;;15.77;7.75;;;;;;;15.88;61.60;102103.13;6305425;22;20053;-59
2022/08/29 04:54:17;;;;;;;17.30;7.65;;;;;;;15.88;61.83;102091.94;6303416;22;20015;-58
2022/08/29 04:56:43;;;;;;;14.80;7.68;;;;;;;15.86;61.83;102090.47;6304082;22;20011;-59
2022/08/29 04:59:08;;;;;;;13.77;7.85;;;;;;;15.81;61.65;102105.25;6305491;22;20045;-59
2022/08/29 05:01:33;;;;;;;11.88;7.00;;;;;;;15.82;61.42;102095.75;6304346;22;20003;-59
2022/08/29 05:03:58;;;;;;;11.27;6.90;;;;;;;15.82;61.56;102112.53;6302665;22;20004;-61
2022/08/29 05:06:27;;;;;;;12.95;7.93;;;;;;;15.79;61.76;102099.06;6303715;22;20000;-59
2022/08/29 05:08:52;;;;;;;11.95;7.38;;;;;;;15.85;61.76;102100.00;6302927;22;20402;-58
2022/08/29 05:11:19;;;;;;;13.52;7.57;;;;;;;15.82;62.10;102095.75;6302388;22;20003;-59
2022/08/29 05:13:46;;;;;;;16.30;7.63;;;;;;;15.82;62.28;102086.50;6305366;22;20386;-58
2022/08/29 05:16:13;;;;;;;11.45;7.18;;;;;;;15.76;62.23;102095.91;6304476;22;20021;-59
2022/08/29 05:18:40;;;;;;;12.20;7.50;;;;;;;15.80;62.27;102109.16;6305161;22;20103;-59
2022/08/29 05:21:06;;;;;;;11.68;6.93;;;;;;;15.80;62.48;102097.09;6309728;22;20078;-58
2022/08/29 05:23:31;;;;;;;11.35;6.35;;;;;;;15.82;62.43;102104.16;6306051;22;20480;-59
2022/08/29 05:26:52;;;;;;;9.45;6.38;;;;;;;15.86;62.26;102108.13;6295186;22;20392;-61
2022/08/29 06:10:12;;;;;;;10.40;5.25;;;;;;;16.22;61.36;102142.22;5826290;24;20019;-61
2022/08/29 06:20:46;;;;;;;;;;;;;;;;;;;;;
2022/08/29 07:04:47;;;;;;;13.93;6.63;;;;;;;16.78;60.11;102165.41;6120637;23;20073;-60
2022/08/29 07:22:22;;;;;;;6.13;3.60;;;;;;;18.03;59.56;102153.84;6117243;23;20010;-59
2022/08/29 07:29:01;;;;;;;7.40;4.28;;;;;;;18.60;57.70;102164.28;5945690;24;20013;-63
2022/08/29 07:36:00;;;;;;;;;;;;;;;;;;;;;
2022/08/29 07:52:52;;;;;;;;;;;;;;;;;;;;;
2022/08/29 08:20:48;;;;;;;;;;;;;;;;;;;;;
2022/08/29 09:03:55;;;;;;;;;;;;;;;;;;;;;
2022/08/29 09:07:10;;;;;;;;;;;;;;;;;;;;;
2022/08/29 09:10:24;;;;;;;;;;;;;;;;;;;;;
2022/08/29 09:13:47;;;;;;;10.65;4.47;;;;;;;19.49;47.85;102159.41;6088455;23;20113;-59
2022/08/29 09:19:45;;;;;;;7.45;3.60;;;;;;;19.65;48.11;102162.22;6093869;23;19913;-60
2022/08/29 09:30:07;;;;;;;7.85;3.63;;;;;;;19.59;48.25;102170.66;6013646;23;20019;-61
2022/08/29 09:36:35;;;;;;;;;;;;;;;;;;;;;
2022/08/29 10:01:10;;;;;;;7.80;4.00;;;;;;;19.87;47.62;102159.97;6006423;23;20035;-63
2022/08/29 10:04:08;;;;;;;9.48;4.13;;;;;;;19.93;46.70;102163.63;6014506;23;20325;-59
2022/08/29 10:55:34;;;;;;;7.75;3.90;;;;;;;20.80;46.48;102144.44;6141787;23;20039;-59
2022/08/29 10:58:16;;;;;;;8.60;4.63;;;;;;;20.81;45.40;102138.50;6243072;23;20001;-58
2022/08/29 11:00:47;;;;;;;6.80;4.23;;;;;;;20.87;45.14;102135.63;6271002;22;20471;-59
2022/08/29 11:03:32;;;;;;;8.07;4.15;;;;;;;20.91;44.96;102131.13;6272231;22;20293;-58
2022/08/29 11:06:11;;;;;;;8.07;4.13;;;;;;;20.91;44.91;102114.19;6272559;22;20003;-58
2022/08/29 11:08:44;;;;;;;8.85;3.78;;;;;;;20.87;44.97;102121.53;6272426;22;20010;-58
2022/08/29 11:11:13;;;;;;;7.28;3.78;;;;;;;20.89;45.48;102122.94;6270484;22;20016;-58
2022/08/29 11:13:43;;;;;;;6.28;3.90;;;;;;;20.89;44.54;102114.47;6273506;22;20054;-58
2022/08/29 11:16:21;;;;;;;6.28;3.30;;;;;;;20.97;44.71;102110.19;6271399;22;20003;-59
2022/08/29 11:18:55;;;;;;;9.85;3.63;;;;;;;21.02;44.62;102112.97;6274305;22;20004;-58
2022/08/29 11:21:47;;;;;;;8.65;3.97;;;;;;;21.03;43.95;102112.69;6271174;22;20446;-58
2022/08/29 11:24:15;;;;;;;9.77;4.20;;;;;;;21.10;43.55;102109.50;6264148;22;20022;-59
2022/08/29 11:26:43;;;;;;;8.75;3.90;;;;;;;21.07;43.47;102101.66;6272184;22;20090;-58
2022/08/29 11:29:46;;;;;;;5.68;3.28;;;;;;;21.15;44.86;102094.53;6271484;22;20031;-58
2022/08/29 11:32:46;;;;;;;9.68;3.65;;;;;;;21.18;44.47;102096.75;6271758;22;20031;-59
2022/08/29 11:35:28;;;;;;;6.82;3.72;;;;;;;21.20;44.43;102089.69;6272532;22;19999;-59
2022/08/29 11:37:59;;;;;;;;;;;;;;;21.26;44.63;102085.69;6273472;22;20003;-59
2022/08/29 11:40:43;;;;;;;5.47;3.30;;;;;;;21.30;44.48;102080.28;6273059;22;19946;-58
2022/08/29 11:43:16;;;;;;;6.72;3.60;;;;;;;21.24;43.83;102085.13;6272800;22;20411;-59
2022/08/29 11:45:43;;;;;;;8.20;3.67;;;;;;;21.24;43.41;102093.59;6291341;22;20432;-58
2022/08/29 11:48:41;;;;;;;8.20;3.90;;;;;;;21.27;43.88;102092.19;6303928;22;20003;-59
2022/08/29 11:51:28;;;;;;;5.65;3.35;;;;;;;21.23;43.89;102083.44;6304641;22;20010;-58
2022/08/29 11:53:54;;;;;;;9.77;3.67;;;;;;;21.25;43.11;102078.34;6304360;22;20007;-58
2022/08/29 11:56:24;;;;;;;10.20;4.05;;;;;;;21.27;43.89;102078.06;6304048;22;20057;-59
2022/08/29 11:58:54;;;;;;;8.05;3.20;;;;;;;21.35;43.25;102082.25;6304377;22;20007;-58
2022/08/29 12:01:34;;;;;;;7.93;3.80;;;;;;;21.36;43.70;102090.41;6303607;22;20017;-58
2022/08/29 12:04:08;;;;;;;8.35;3.78;;;;;;;21.35;42.65;102076.59;6304593;22;20319;-58
2022/08/29 12:06:53;;;;;;;11.93;3.88;;;;;;;21.37;42.58;102074.31;6303620;22;20003;-58
2022/08/29 12:09:56;;;;;;;10.63;4.20;;;;;;;21.43;43.70;102075.97;6303744;22;20102;-58
2022/08/29 12:12:43;;;;;;;7.82;3.95;;;;;;;21.43;43.31;102075.97;6149142;23;20009;-59
2022/08/29 12:15:34;;;;;;;4.80;3.33;;;;;;;21.48;43.40;102070.25;6297121;22;20007;-59
2022/08/29 12:18:08;;;;;;;8.93;4.00;;;;;;;21.48;42.73;102067.44;6304859;22;20331;-59
2022/08/29 12:20:48;;;;;;;6.45;3.30;;;;;;;21.56;43.75;102066.78;6304415;22;20082;-58
2022/08/29 12:23:13;;;;;;;5.60;3.45;;;;;;;21.56;42.84;102073.28;6302792;22;20038;-58
2022/08/29 12:25:45;;;;;;;8.35;3.88;;;;;;;21.56;42.59;102061.13;6304618;22;20003;-58
2022/08/29 12:28:31;;;;;;;9.90;3.67;;;;;;;21.62;43.33;102064.75;6302595;22;20366;-58
2022/08/29 12:30:56;;;;;;;7.18;3.55;;;;;;;21.61;42.64;102065.88;6304186;22;20086;-58
2022/08/29 12:34:02;;;;;;;7.23;4.27;;;;;;;21.64;42.98;102068.97;6302707;22;20462;-58
2022/08/29 12:36:55;;;;;;;5.22;3.30;;;;;;;21.68;43.56;102058.75;6303283;22;20230;-58
2022/08/29 12:39:39;;;;;;;6.75;3.38;;;;;;;21.71;43.40;102055.31;6303535;22;20015;-59
2022/08/29 12:42:10;;;;;;;9.15;3.70;;;;;;;21.74;42.61;102051.91;6302278;22;20145;-58
2022/08/29 12:44:41;;;;;;;7.30;4.00;;;;;;;21.77;43.03;102047.63;6303884;22;20142;-58
2022/08/29 12:47:47;;;;;;;12.50;3.20;;;;;;;21.80;43.57;102044.19;6303842;22;19999;-58
2022/08/29 12:50:20;;;;;;;8.20;3.70;;;;;;;21.78;43.37;102043.69;6226134;22;20250;-58
2022/08/29 12:53:06;;;;;;;5.93;3.38;;;;;;;21.77;43.46;102039.13;6304277;22;20027;-59
2022/08/29 12:55:38;;;;;;;7.20;4.00;;;;;;;21.78;43.04;102035.19;6300500;22;20011;-58
2022/08/29 12:58:04;;;;;;;8.05;3.67;;;;;;;21.79;43.05;102039.69;6303249;22;20006;-59
2022/08/29 13:00:32;;;;;;;5.68;3.90;;;;;;;21.77;42.85;102033.50;6302094;22;20011;-57
2022/08/29 13:03:18;;;;;;;7.13;3.60;;;;;;;21.71;43.40;102029.06;6301394;22;20722;-60
2022/08/29 13:05:44;;;;;;;8.23;3.58;;;;;;;21.76;43.31;102015.69;6303950;22;20442;-58
2022/08/29 13:08:25;;;;;;;7.50;3.38;;;;;;;21.75;43.27;102025.31;6302575;22;20007;-59
2022/08/29 13:10:56;;;;;;;7.20;3.43;;;;;;;21.76;43.20;102014.84;6303538;22;20011;-58
2022/08/29 13:13:24;;;;;;;7.75;3.50;;;;;;;21.77;42.85;102013.72;6302393;22;20011;-59
2022/08/29 13:15:54;;;;;;;8.85;3.67;;;;;;;21.79;43.21;102019.91;6301845;22;20027;-57
2022/08/29 13:18:20;;;;;;;6.25;3.40;;;;;;;21.80;42.89;102011.13;6302937;22;20510;-58
2022/08/29 13:21:08;;;;;;;9.23;3.38;;;;;;;21.92;43.96;102007.03;6302459;22;20007;-57
2022/08/29 13:23:38;;;;;;;6.20;3.05;;;;;;;21.90;41.85;102015.00;6301320;22;20014;-58
2022/08/29 13:26:09;;;;;;;6.78;3.40;;;;;;;21.90;42.61;102024.31;6302809;22;20003;-59
2022/08/29 13:28:44;;;;;;;7.72;3.22;;;;;;;21.91;42.78;102013.84;6305197;22;20005;-58
2022/08/29 13:31:15;;;;;;;8.48;3.40;;;;;;;21.89;42.62;102013.28;6302006;22;20003;-58
2022/08/29 13:33:46;;;;;;;6.67;3.40;;;;;;;21.96;43.63;102008.09;6303525;22;20301;-57
2022/08/29 13:36:39;;;;;;;7.07;3.10;;;;;;;21.97;42.92;102012.66;6303692;22;20007;-58
2022/08/29 13:39:24;;;;;;;5.32;3.10;;;;;;;22.00;42.55;102000.72;6303084;22;20007;-58
2022/08/29 13:42:01;;;;;;;7.60;3.50;;;;;;;21.97;42.13;102004.16;6300377;22;20086;-57
2022/08/29 13:44:48;;;;;;;6.25;3.13;;;;;;;22.07;43.10;102004.00;6298784;22;20011;-58
2022/08/29 13:47:22;;;;;;;7.70;3.25;;;;;;;22.10;42.38;101997.75;6300039;22;20039;-58
2022/08/29 13:49:49;;;;;;;8.23;3.50;;;;;;;22.05;42.25;101995.84;6301662;22;20011;-58
2022/08/29 13:52:15;;;;;;;7.97;3.20;;;;;;;22.09;41.53;101995.25;6298484;22;20014;-59
2022/08/29 13:54:41;;;;;;;9.80;3.00;;;;;;;22.06;41.67;101988.19;6300814;22;20496;-58
2022/08/29 13:57:14;;;;;;;6.47;3.08;;;;;;;22.03;40.71;101985.97;6300880;22;20007;-57
2022/08/29 13:59:39;;;;;;;8.60;3.33;;;;;;;22.01;41.00;101988.28;6299354;22;20007;-59
2022/08/29 14:02:06;;;;;;;6.32;3.17;;;;;;;22.05;41.39;101986.53;6300881;22;20037;-58
2022/08/29 14:04:32;;;;;;;7.95;3.80;;;;;;;22.04;40.80;101979.16;6299501;22;20014;-58
2022/08/29 14:06:58;;;;;;;6.38;3.50;;;;;;;22.02;40.53;101978.63;6299670;22;20007;-58
2022/08/29 14:09:31;;;;;;;9.00;3.30;;;;;;;22.03;41.99;101975.50;6300214;22;20086;-58
2022/08/29 14:11:58;;;;;;;7.07;3.38;;;;;;;22.08;42.06;101977.41;6298950;22;20411;-58
2022/08/29 14:14:26;;;;;;;7.68;3.10;;;;;;;22.11;41.61;101981.63;6299694;22;20057;-58
2022/08/29 14:16:52;;;;;;;8.77;3.20;;;;;;;22.12;41.78;101967.16;6299201;22;20014;-59
2022/08/29 14:19:25;;;;;;;6.60;3.50;;;;;;;22.12;42.36;101967.16;6300306;22;20078;-58
2022/08/29 14:21:53;;;;;;;7.88;3.20;;;;;;;22.15;42.55;101977.06;6302548;22;20027;-58
2022/08/29 14:24:21;;;;;;;7.55;3.70;;;;;;;22.12;42.04;101972.81;6300657;22;20220;-58
2022/08/29 14:26:47;;;;;;;7.82;3.33;;;;;;;22.13;42.25;101968.03;6301131;22;20004;-59
2022/08/29 14:29:12;;;;;;;5.70;3.20;;;;;;;22.13;41.24;101968.91;6302115;22;20003;-58
2022/08/29 14:31:38;;;;;;;9.25;3.33;;;;;;;22.13;40.51;101970.88;6301772;22;20003;-59
2022/08/29 14:34:04;;;;;;;7.32;3.03;;;;;;;22.10;41.19;101980.78;6302646;22;20007;-58
2022/08/29 14:36:29;;;;;;;9.15;3.70;;;;;;;22.11;41.91;101976.81;6299908;22;20003;-58
2022/08/29 14:38:55;;;;;;;7.20;3.58;;;;;;;22.08;40.79;101966.09;6300544;22;20003;-58
2022/08/29 14:41:20;;;;;;;5.75;3.50;;;;;;;22.06;40.73;101955.09;6300725;22;20007;-58
2022/08/29 14:43:46;;;;;;;6.28;3.35;;;;;;;22.08;40.71;101953.94;6302482;22;19999;-59
2022/08/29 14:46:11;;;;;;;6.35;3.15;;;;;;;22.12;41.38;101949.38;6299936;22;20427;-58
2022/08/29 14:48:37;;;;;;;6.93;3.25;;;;;;;22.13;41.64;101945.41;6296879;22;20009;-58
2022/08/29 14:51:02;;;;;;;7.57;3.35;;;;;;;22.14;41.68;101947.97;6302647;22;20062;-58
2022/08/29 14:53:28;;;;;;;4.57;2.90;;;;;;;22.15;42.23;101946.81;6301790;22;20082;-58
2022/08/29 14:55:55;;;;;;;5.30;3.47;;;;;;;22.07;40.77;101944.63;6301605;22;20067;-58
2022/08/29 14:58:20;;;;;;;6.45;3.38;;;;;;;22.06;40.64;101945.78;6301331;22;20065;-58
2022/08/29 15:00:46;;;;;;;5.97;3.72;;;;;;;22.07;40.38;101947.47;6301535;22;20003;-59
2022/08/29 15:03:11;;;;;;;7.88;3.70;;;;;;;22.06;40.52;101931.66;6299936;22;20368;-58
2022/08/29 15:05:36;;;;;;;9.00;3.85;;;;;;;22.10;40.49;101931.88;6299920;22;20006;-58
2022/08/29 15:08:05;;;;;;;7.47;3.47;;;;;;;22.10;41.64;101931.88;6300176;22;20094;-57
2022/08/29 15:10:36;;;;;;;6.55;3.22;;;;;;;22.01;40.49;101920.44;6300699;22;20069;-58
2022/08/29 15:13:06;;;;;;;8.65;3.28;;;;;;;22.06;40.09;101926.84;6300054;22;20431;-58
2022/08/29 15:15:32;;;;;;;7.00;3.38;;;;;;;22.14;41.71;101924.50;6298787;22;20007;-58
2022/08/29 15:17:59;;;;;;;8.32;3.38;;;;;;;22.17;41.44;101921.06;6300599;22;20308;-59
2022/08/29 15:20:25;;;;;;;6.18;3.10;;;;;;;22.13;41.09;101920.84;6299899;22;20461;-59
2022/08/29 15:22:50;;;;;;;6.38;3.65;;;;;;;22.15;41.30;101920.53;6300442;22;20004;-58
2022/08/29 15:25:16;;;;;;;7.43;3.40;;;;;;;22.17;42.37;101913.44;6296013;22;20015;-59
2022/08/29 15:27:41;;;;;;;9.02;3.72;;;;;;;22.22;42.23;101916.16;6298911;22;20095;-58
2022/08/29 15:30:08;;;;;;;6.90;3.50;;;;;;;22.16;40.72;101917.38;6299761;22;20053;-58
2022/08/29 15:32:37;;;;;;;7.57;3.13;;;;;;;22.17;40.14;101921.06;6300909;22;20011;-58
2022/08/29 15:35:03;;;;;;;8.13;3.50;;;;;;;22.17;40.73;101919.09;6301398;22;20003;-58
2022/08/29 15:37:28;;;;;;;8.15;3.53;;;;;;;22.15;40.02;101912.03;6299153;22;19999;-58
2022/08/29 15:39:53;;;;;;;12.73;3.25;;;;;;;22.21;42.54;101900.34;6300499;22;20021;-58
2022/08/29 15:42:22;;;;;;;7.30;3.08;;;;;;;22.22;42.75;101904.84;6297804;22;20007;-58
2022/08/29 15:44:48;;;;;;;13.60;3.38;;;;;;;22.26;42.55;101902.25;6298489;22;20022;-58
2022/08/29 15:47:13;;;;;;;10.43;3.17;;;;;;;22.25;41.09;101903.41;6299261;22;20011;-58
2022/08/29 15:49:39;;;;;;;8.07;3.65;;;;;;;22.27;42.20;101901.94;6297255;22;20694;-59
2022/08/29 15:52:04;;;;;;;7.60;3.63;;;;;;;22.28;41.94;101902.78;6300955;22;20003;-59
2022/08/29 15:54:29;;;;;;;9.18;3.30;;;;;;;22.31;42.05;101896.50;6300586;22;20082;-58
2022/08/29 15:56:55;;;;;;;9.50;3.50;;;;;;;22.31;42.04;101899.34;6300570;22;20081;-58
2022/08/29 15:59:21;;;;;;;9.77;3.60;;;;;;;22.36;42.87;101896.44;6300408;22;20102;-58
2022/08/29 16:01:52;;;;;;;6.20;3.33;;;;;;;22.38;42.17;101898.97;6301269;22;20007;-59
2022/08/29 16:04:20;;;;;;;7.32;3.15;;;;;;;22.34;40.86;101900.72;6299512;22;20078;-58
2022/08/29 16:06:46;;;;;;;7.32;2.85;;;;;;;22.34;40.50;101889.41;6302246;22;20078;-59
2022/08/29 16:09:11;;;;;;;6.93;3.08;;;;;;;22.34;40.67;101906.38;6300799;22;20035;-58
2022/08/29 16:11:37;;;;;;;7.32;3.20;;;;;;;22.29;40.25;101898.81;6300563;22;20050;-58
2022/08/29 16:14:04;;;;;;;6.38;2.97;;;;;;;22.32;40.29;101900.19;6300427;22;20574;-58
2022/08/29 16:16:31;;;;;;;7.75;3.17;;;;;;;22.27;40.13;101895.44;6299429;22;20353;-58
2022/08/29 16:18:57;;;;;;;11.20;3.33;;;;;;;22.30;40.53;101895.69;6300471;22;20588;-57
2022/08/29 16:21:23;;;;;;;10.05;3.38;;;;;;;22.31;41.98;101888.03;6301680;22;20007;-57
2022/08/29 16:23:49;;;;;;;6.65;3.00;;;;;;;22.34;41.68;101889.41;6300385;22;20014;-58
2022/08/29 16:26:18;;;;;;;5.50;3.03;;;;;;;22.30;40.50;101889.19;6295586;22;20525;-58
2022/08/29 16:28:43;;;;;;;11.80;3.50;;;;;;;22.30;39.88;101898.50;6300100;22;20062;-57
2022/08/29 16:31:09;;;;;;;11.82;3.50;;;;;;;22.29;40.14;101888.34;6298643;22;20345;-57